createdAt,value
2022-11-01T00:00:51.203Z,12.85
2022-11-01T00:03:37.427Z,9.15
2022-11-01T00:06:24.836Z,12.05
2022-11-01T00:09:11.481Z,14.95
2022-11-01T00:11:58.463Z,9.02
2022-11-01T00:14:44.104Z,12.90
2022-11-01T00:17:29.628Z,10.10
2022-11-01T00:20:15.652Z,13.33
2022-11-01T00:23:02.227Z,9.23
2022-11-01T00:25:48.780Z,10.98
2022-11-01T00:28:35.441Z,11.48
2022-11-01T00:31:22.033Z,14.15
2022-11-01T00:34:08.172Z,12.30
2022-11-01T00:36:54.947Z,14.77
2022-11-01T00:39:40.660Z,10.93
2022-11-01T00:42:26.092Z,11.88
2022-11-01T00:45:11.720Z,9.93
2022-11-01T00:47:59.454Z,8.87
2022-11-01T00:50:45.820Z,10.75
2022-11-01T00:53:31.615Z,8.57
2022-11-01T00:56:17.552Z,11.05
2022-11-01T00:59:03.499Z,10.43
2022-11-01T01:01:49.896Z,12.03
2022-11-01T01:04:41.380Z,11.95
2022-11-01T01:07:27.111Z,11.95
2022-11-01T01:10:13.124Z,11.25
2022-11-01T01:12:59.424Z,10.98
2022-11-01T01:15:45.915Z,11.80
2022-11-01T01:18:31.815Z,12.80
2022-11-01T01:21:17.560Z,11.65
2022-11-01T01:24:03.941Z,9.48
2022-11-01T01:26:50.091Z,10.05
2022-11-01T01:29:37.619Z,13.43
2022-11-01T01:32:24.280Z,11.48
2022-11-01T01:35:10.713Z,10.85
2022-11-01T01:37:56.110Z,10.75
2022-11-01T01:40:41.870Z,11.00
2022-11-01T01:43:42.135Z,10.50
2022-11-01T01:46:28.535Z,10.85
2022-11-01T01:49:14.463Z,10.38
2022-11-01T01:52:00.520Z,11.77
2022-11-01T01:54:47.740Z,10.40
2022-11-01T01:57:34.800Z,10.20
2022-11-01T02:00:20.979Z,13.27
2022-11-01T02:03:07.248Z,11.48
2022-11-01T02:05:58.702Z,11.10
2022-11-01T02:08:49.250Z,12.25
2022-11-01T02:11:35.490Z,11.82
2022-11-01T02:14:24.515Z,10.63
2022-11-01T02:17:28.134Z,10.50
2022-11-01T02:20:39.873Z,11.20
2022-11-01T02:23:53.459Z,9.05
2022-11-01T02:27:06.343Z,11.00
2022-11-01T02:30:18.404Z,10.30
2022-11-01T02:33:15.291Z,9.55
2022-11-01T02:36:09.964Z,12.13
2022-11-01T02:39:02.317Z,12.45
2022-11-01T02:41:55.950Z,11.40
2022-11-01T02:44:49.327Z,11.05
2022-11-01T02:47:36.393Z,13.63
2022-11-01T02:50:23.284Z,11.15
2022-11-01T02:53:10.406Z,8.50
2022-11-01T02:55:56.986Z,11.63
2022-11-01T02:58:43.708Z,12.55
2022-11-01T03:01:34.508Z,14.57
2022-11-01T03:04:21.391Z,12.57
2022-11-01T03:07:12.303Z,8.65
2022-11-01T03:09:58.829Z,8.80
2022-11-01T03:13:04.029Z,10.80
2022-11-01T03:15:58.181Z,9.70
2022-11-01T03:19:18.503Z,10.32
2022-11-01T03:22:24.524Z,13.40
2022-11-01T03:25:48.404Z,12.53
2022-11-01T03:28:42.996Z,9.43
2022-11-01T03:31:32.619Z,9.30
2022-11-01T03:34:20.337Z,13.20
2022-11-01T03:37:11.266Z,11.65
2022-11-01T03:40:02.806Z,10.82
2022-11-01T03:42:53.517Z,8.67
2022-11-01T03:45:41.166Z,10.30
2022-11-01T03:48:27.259Z,12.63
2022-11-01T03:51:13.109Z,12.15
2022-11-01T03:53:59.455Z,14.30
2022-11-01T03:56:45.950Z,13.30
2022-11-01T03:59:32.191Z,14.25
2022-11-01T04:02:18.019Z,12.35
2022-11-01T04:05:04.447Z,10.75
2022-11-01T04:07:51.528Z,13.17
2022-11-01T04:10:37.614Z,11.45
2022-11-01T04:13:23.731Z,14.17
2022-11-01T04:16:30.847Z,10.67
2022-11-01T04:19:36.070Z,12.63
2022-11-01T04:22:24.491Z,10.85
2022-11-01T04:25:10.961Z,8.80
2022-11-01T04:27:57.063Z,11.77
2022-11-01T04:30:43.966Z,12.45
2022-11-01T04:33:29.198Z,14.10
2022-11-01T04:36:14.691Z,11.88
2022-11-01T04:39:01.069Z,14.05
2022-11-01T04:41:46.740Z,13.20
2022-11-01T04:44:32.649Z,11.27
2022-11-01T04:47:18.487Z,9.82
2022-11-01T04:50:05.027Z,12.15
2022-11-01T04:52:50.665Z,17.13
2022-11-01T04:55:37.529Z,14.88
2022-11-01T04:58:24.123Z,13.93
2022-11-01T05:01:10.468Z,11.55
2022-11-01T05:03:57.079Z,10.32
2022-11-01T05:06:42.986Z,12.57
2022-11-01T05:09:28.466Z,12.65
2022-11-01T05:12:13.872Z,13.82
2022-11-01T05:14:59.471Z,14.10
2022-11-01T05:17:45.445Z,13.00
2022-11-01T05:20:32.227Z,13.02
2022-11-01T05:23:18.513Z,12.68
2022-11-01T05:26:04.168Z,11.95
2022-11-01T05:28:49.895Z,12.73
2022-11-01T05:31:36.151Z,13.73
2022-11-01T05:34:22.374Z,11.37
2022-11-01T05:37:08.119Z,12.65
2022-11-01T05:39:53.727Z,16.70
2022-11-01T05:42:39.873Z,16.50
2022-11-01T05:45:25.851Z,11.48
2022-11-01T05:48:12.116Z,11.05
2022-11-01T05:50:58.079Z,12.35
2022-11-01T05:53:43.870Z,14.27
2022-11-01T05:56:29.567Z,14.65
2022-11-01T05:59:15.467Z,14.27
2022-11-01T06:02:01.695Z,14.38
2022-11-01T06:04:48.047Z,11.27
2022-11-01T06:07:36.420Z,11.88
2022-11-01T06:10:22.827Z,13.27
2022-11-01T06:13:09.162Z,12.38
2022-11-01T06:16:05.950Z,13.15
2022-11-01T06:18:51.714Z,12.43
2022-11-01T06:21:38.362Z,13.10
2022-11-01T06:24:24.350Z,12.23
2022-11-01T06:27:12.549Z,15.43
2022-11-01T06:29:58.596Z,14.85
2022-11-01T06:32:44.848Z,15.50
2022-11-01T06:35:30.723Z,14.43
2022-11-01T06:38:17.335Z,13.75
2022-11-01T06:41:03.200Z,13.05
2022-11-01T06:43:50.424Z,12.93
2022-11-01T06:46:36.211Z,13.88
2022-11-01T06:49:22.364Z,11.73
2022-11-01T06:52:08.788Z,13.00
2022-11-01T06:54:55.024Z,12.82
2022-11-01T06:57:41.162Z,15.10
2022-11-01T07:00:29.618Z,13.43
2022-11-01T07:03:16.448Z,12.85
2022-11-01T07:06:02.176Z,15.50
2022-11-01T07:08:47.890Z,15.93
2022-11-01T07:11:33.616Z,15.40
2022-11-01T07:14:20.006Z,14.60
2022-11-01T07:17:05.777Z,13.10
2022-11-01T07:19:51.320Z,14.73
2022-11-01T07:22:37.179Z,14.68
2022-11-01T07:25:23.307Z,13.35
2022-11-01T07:28:09.617Z,17.37
2022-11-01T07:30:55.882Z,13.85
2022-11-01T07:33:42.128Z,16.83
2022-11-01T07:36:27.851Z,14.35
2022-11-01T07:39:15.183Z,25.98
2022-11-01T07:42:00.494Z,17.90
2022-11-01T07:44:46.342Z,14.13
2022-11-01T07:47:32.423Z,19.38
2022-11-01T07:50:19.103Z,24.75
2022-11-01T07:53:17.627Z,16.40
2022-11-01T07:56:04.232Z,16.88
2022-11-01T07:58:49.788Z,17.92
2022-11-01T08:01:35.470Z,12.10
2022-11-01T08:04:21.839Z,14.52
2022-11-01T08:07:08.519Z,12.52
2022-11-01T08:09:54.175Z,14.05
2022-11-01T08:12:39.574Z,15.63
2022-11-01T08:15:25.103Z,15.35
2022-11-01T08:18:12.170Z,13.82
2022-11-01T08:20:59.578Z,14.97
2022-11-01T08:23:45.886Z,15.95
2022-11-01T08:26:31.550Z,16.90
2022-11-01T08:29:17.044Z,15.38
2022-11-01T08:32:03.888Z,19.75
2022-11-01T08:34:49.564Z,16.88
2022-11-01T08:37:35.875Z,16.58
2022-11-01T08:40:22.578Z,15.13
2022-11-01T08:43:09.151Z,15.38
2022-11-01T08:45:54.859Z,14.07
2022-11-01T08:48:40.447Z,16.60
2022-11-01T08:51:27.674Z,14.07
2022-11-01T08:54:14.152Z,16.92
2022-11-01T08:57:02.734Z,16.75
2022-11-01T08:59:49.155Z,14.30
2022-11-01T09:02:35.399Z,13.68
2022-11-01T09:05:22.448Z,14.57
2022-11-01T09:08:08.864Z,12.38
2022-11-01T09:10:58.527Z,12.70
2022-11-01T09:13:44.391Z,13.63
2022-11-01T09:16:30.704Z,14.07
2022-11-01T09:19:16.155Z,13.05
2022-11-01T09:22:02.055Z,15.63
2022-11-01T09:24:47.754Z,16.23
2022-11-01T09:27:33.891Z,12.73
2022-11-01T09:30:19.651Z,13.25
2022-11-01T09:33:06.182Z,13.00
2022-11-01T09:35:59.342Z,15.83
2022-11-01T09:38:45.631Z,13.50
2022-11-01T09:41:43.106Z,14.02
2022-11-01T09:44:43.776Z,14.45
2022-11-01T09:47:31.682Z,19.35
2022-11-01T09:50:25.658Z,16.30
2022-11-01T09:53:19.436Z,12.65
2022-11-01T09:56:15.322Z,13.47
2022-11-01T09:59:38.927Z,16.80
2022-11-01T10:02:39.898Z,13.50
2022-11-01T10:05:34.547Z,11.85
2022-11-01T10:08:29.905Z,18.13
2022-11-01T10:11:19.115Z,13.95
2022-11-01T10:14:31.156Z,12.63
2022-11-01T10:17:29.865Z,15.00
2022-11-01T10:20:16.591Z,13.93
2022-11-01T10:23:04.802Z,10.80
2022-11-01T10:25:54.767Z,14.68
2022-11-01T10:29:29.017Z,11.02
2022-11-01T10:32:21.046Z,10.33
2022-11-01T10:35:21.156Z,10.88
2022-11-01T10:38:24.944Z,14.38
2022-11-01T10:41:29.866Z,13.38
2022-11-01T10:44:25.633Z,12.68
2022-11-01T10:47:19.382Z,10.07
2022-11-01T10:50:10.432Z,12.32
2022-11-01T10:53:07.114Z,10.70
2022-11-01T10:55:57.806Z,11.20
2022-11-01T10:59:12.406Z,12.90
2022-11-01T11:02:00.330Z,10.10
2022-11-01T11:04:46.500Z,14.48
2022-11-01T11:07:33.782Z,9.20
2022-11-01T11:10:29.333Z,10.85
2022-11-01T11:13:20.340Z,13.13
2022-11-01T11:16:09.669Z,11.85
2022-11-01T11:19:19.251Z,11.52
2022-11-01T11:22:09.272Z,10.05
2022-11-01T11:24:59.251Z,10.48
2022-11-01T11:27:48.047Z,10.93
2022-11-01T11:30:35.604Z,11.23
2022-11-01T11:33:22.015Z,12.10
2022-11-01T11:36:08.197Z,13.32
2022-11-01T11:38:55.137Z,11.95
2022-11-01T11:41:41.889Z,12.38
2022-11-01T11:44:51.915Z,12.65
2022-11-01T11:47:41.810Z,13.77
2022-11-01T11:50:32.625Z,10.73
2022-11-01T11:53:22.865Z,11.23
2022-11-01T11:56:09.484Z,9.90
2022-11-01T11:58:57.918Z,11.15
2022-11-01T12:01:43.719Z,9.60
2022-11-01T12:04:42.145Z,11.52
2022-11-01T12:07:32.114Z,10.47
2022-11-01T12:10:38.516Z,11.68
2022-11-01T12:13:27.874Z,7.82
2022-11-01T12:16:17.536Z,9.23
2022-11-01T12:19:03.804Z,9.83
2022-11-01T12:21:49.646Z,7.97
2022-11-01T12:24:46.642Z,13.48
2022-11-01T12:27:35.597Z,10.20
2022-11-01T12:30:25.095Z,10.55
2022-11-01T12:33:29.504Z,12.13
2022-11-01T12:36:15.760Z,9.80
2022-11-01T12:39:40.304Z,12.57
2022-11-01T12:42:35.599Z,10.35
2022-11-01T12:45:28.758Z,10.48
2022-11-01T12:48:22.530Z,9.32
2022-11-01T12:51:20.467Z,11.87
2022-11-01T12:54:10.016Z,8.77
2022-11-01T12:56:56.805Z,12.50
2022-11-01T12:59:44.558Z,10.47
2022-11-01T13:02:45.232Z,12.02
2022-11-01T13:05:34.049Z,9.70
2022-11-01T13:08:53.888Z,7.95
2022-11-01T13:11:50.460Z,10.32
2022-11-01T13:15:04.157Z,11.10
2022-11-01T13:18:05.115Z,13.50
2022-11-01T13:21:10.963Z,17.00
2022-11-01T13:24:11.483Z,17.08
2022-11-01T13:27:03.047Z,16.23
2022-11-01T13:30:09.517Z,19.52
2022-11-01T13:33:21.233Z,20.05
2022-11-01T13:36:30.320Z,17.63
2022-11-01T13:39:40.526Z,19.40
2022-11-01T13:42:40.900Z,22.90
2022-11-01T13:45:47.392Z,18.13
2022-11-01T13:48:53.848Z,15.88
2022-11-01T13:51:56.812Z,16.77
2022-11-01T13:54:55.450Z,17.02
2022-11-01T13:57:44.871Z,16.30
2022-11-01T14:00:39.566Z,14.65
2022-11-01T14:03:33.454Z,13.95
2022-11-01T14:06:36.609Z,12.55
2022-11-01T14:09:26.062Z,12.98
2022-11-01T14:12:29.624Z,14.55
2022-11-01T14:15:17.180Z,11.68
2022-11-01T14:18:10.553Z,11.68
2022-11-01T14:20:57.582Z,12.68
2022-11-01T14:23:43.717Z,12.93
2022-11-01T14:26:50.204Z,12.38
2022-11-01T14:29:36.629Z,11.07
2022-11-01T14:32:27.750Z,11.70
2022-11-01T14:35:25.654Z,12.77
2022-11-01T14:38:16.377Z,12.23
2022-11-01T14:41:02.809Z,13.60
2022-11-01T14:43:53.529Z,13.10
2022-11-01T14:46:46.615Z,13.13
2022-11-01T14:49:45.617Z,12.82
2022-11-01T14:52:45.927Z,15.03
2022-11-01T14:55:36.874Z,12.30
2022-11-01T14:58:24.095Z,10.73
2022-11-01T15:01:19.076Z,12.13
2022-11-01T15:04:05.060Z,12.73
2022-11-01T15:06:51.633Z,12.40
2022-11-01T15:09:37.868Z,12.30
2022-11-01T15:12:25.324Z,11.27
2022-11-01T15:15:16.630Z,13.23
2022-11-01T15:18:06.336Z,11.23
2022-11-01T15:20:56.615Z,11.13
2022-11-01T15:23:46.414Z,11.48
2022-11-01T15:26:33.354Z,10.95
2022-11-01T15:29:25.072Z,11.10
2022-11-01T15:32:30.324Z,10.30
2022-11-01T15:35:23.666Z,13.77
2022-11-01T15:38:20.814Z,11.63
2022-11-01T15:41:27.179Z,10.73
2022-11-01T15:44:21.467Z,11.88
2022-11-01T15:47:18.292Z,10.47
2022-11-01T15:50:06.924Z,12.30
2022-11-01T15:52:53.459Z,13.02
2022-11-01T15:55:45.887Z,12.82
2022-11-01T15:58:53.050Z,10.83
2022-11-01T16:01:40.151Z,11.65
2022-11-01T16:04:27.581Z,10.45
2022-11-01T16:07:18.482Z,12.17
2022-11-01T16:10:05.573Z,11.30
2022-11-01T16:12:53.272Z,12.23
2022-11-01T16:15:39.619Z,11.07
2022-11-01T16:18:25.935Z,11.80
2022-11-01T16:21:20.844Z,11.68
2022-11-01T16:24:12.223Z,11.55
2022-11-01T16:27:03.888Z,12.05
2022-11-01T16:29:51.893Z,11.35
2022-11-01T16:32:38.252Z,11.68
2022-11-01T16:35:33.203Z,11.75
2022-11-01T16:38:35.422Z,11.60
2022-11-01T16:41:39.609Z,13.05
2022-11-01T16:44:27.785Z,11.75
2022-11-01T16:47:15.663Z,11.93
2022-11-01T16:50:01.239Z,10.50
2022-11-01T16:52:47.142Z,10.90
2022-11-01T16:55:34.917Z,12.60
2022-11-01T16:58:26.582Z,11.98
2022-11-01T17:01:27.318Z,11.25
2022-11-01T17:04:16.599Z,11.15
2022-11-01T17:07:02.644Z,12.23
2022-11-01T17:09:49.568Z,12.25
2022-11-01T17:12:36.463Z,12.85
2022-11-01T17:15:22.423Z,11.07
2022-11-01T17:18:18.644Z,13.32
2022-11-01T17:21:07.928Z,14.50
2022-11-01T17:23:53.896Z,12.33
2022-11-01T17:26:40.741Z,13.43
2022-11-01T17:29:26.856Z,14.02
2022-11-01T17:32:13.137Z,11.38
2022-11-01T17:34:58.875Z,14.10
2022-11-01T17:37:44.633Z,11.93
2022-11-01T17:40:32.035Z,12.18
2022-11-01T17:43:19.842Z,12.30
2022-11-01T17:46:14.971Z,11.75
2022-11-01T17:49:00.730Z,13.55
2022-11-01T17:51:50.445Z,13.95
2022-11-01T17:54:39.216Z,14.10
2022-11-01T17:57:24.710Z,15.40
2022-11-01T18:00:11.515Z,14.43
2022-11-01T18:03:01.395Z,13.82
2022-11-01T18:05:47.343Z,12.65
2022-11-01T18:08:34.498Z,12.88
2022-11-01T18:11:39.573Z,15.65
2022-11-01T18:14:50.442Z,13.73
2022-11-01T18:17:53.916Z,14.80
2022-11-01T18:20:52.652Z,13.65
2022-11-01T18:23:42.301Z,14.38
2022-11-01T18:26:31.378Z,14.85
2022-11-01T18:29:21.266Z,16.10
2022-11-01T18:32:27.652Z,20.40
2022-11-01T18:35:49.856Z,15.27
2022-11-01T18:38:54.380Z,13.90
2022-11-01T18:41:40.201Z,15.75
2022-11-01T18:44:26.783Z,16.08
2022-11-01T18:47:22.335Z,16.15
2022-11-01T18:50:21.582Z,17.63
2022-11-01T18:53:12.484Z,15.52
2022-11-01T18:56:21.459Z,15.70
2022-11-01T18:59:26.187Z,14.20
2022-11-01T19:02:11.640Z,16.63
2022-11-01T19:05:30.387Z,16.20
2022-11-01T19:08:25.150Z,18.67
2022-11-01T19:11:12.355Z,16.63
2022-11-01T19:13:59.772Z,20.63
2022-11-01T19:16:45.754Z,27.23
2022-11-01T19:19:33.101Z,27.85
2022-11-01T19:22:32.572Z,24.50
2022-11-01T19:25:24.383Z,28.75
2022-11-01T19:28:27.790Z,25.03
2022-11-01T19:31:15.031Z,32.92
2022-11-01T19:34:06.071Z,33.75
2022-11-01T19:36:53.104Z,32.63
2022-11-01T19:39:41.640Z,22.83
2022-11-01T19:42:32.140Z,46.27
2022-11-01T19:45:29.751Z,31.50
2022-11-01T19:48:20.304Z,35.33
2022-11-01T19:51:22.658Z,29.83
2022-11-01T19:54:12.169Z,36.33
2022-11-01T19:57:01.133Z,33.53
2022-11-01T19:59:48.054Z,29.42
2022-11-01T20:02:34.175Z,32.05
2022-11-01T20:05:23.624Z,22.50
2022-11-01T20:08:23.638Z,27.50
2022-11-01T20:11:09.436Z,31.38
2022-11-01T20:13:55.713Z,32.10
2022-11-01T20:16:41.662Z,35.33
2022-11-01T20:19:28.354Z,48.47
2022-11-01T20:22:14.409Z,27.27
2022-11-01T20:25:00.748Z,38.95
2022-11-01T20:27:46.427Z,29.58
2022-11-01T20:30:32.361Z,36.13
2022-11-01T20:33:18.417Z,43.13
2022-11-01T20:36:10.814Z,35.42
2022-11-01T20:38:57.207Z,27.30
2022-11-01T20:41:43.093Z,38.92
2022-11-01T20:44:28.616Z,29.65
2022-11-01T20:47:14.687Z,25.45
2022-11-01T20:50:07.604Z,34.17
2022-11-01T20:52:53.527Z,40.83
2022-11-01T20:55:41.963Z,34.80
2022-11-01T20:58:28.339Z,37.13
2022-11-01T21:01:19.207Z,55.80
2022-11-01T21:04:11.463Z,48.53
2022-11-01T21:06:57.666Z,49.30
2022-11-01T21:09:45.699Z,26.17
2022-11-01T21:12:49.492Z,71.43
2022-11-01T21:15:38.205Z,59.13
2022-11-01T21:18:38.286Z,30.23
2022-11-01T21:21:34.651Z,36.15
2022-11-01T21:24:31.385Z,52.97
2022-11-01T21:30:21.342Z,35.27
2022-11-01T21:33:37.931Z,58.88
2022-11-01T21:36:32.659Z,76.93
2022-11-01T21:39:26.876Z,52.15
2022-11-01T21:42:35.972Z,63.63
2022-11-01T21:45:33.757Z,74.32
2022-11-01T21:48:29.699Z,70.90
2022-11-01T21:51:15.244Z,73.13
2022-11-01T21:54:03.511Z,76.63
2022-11-01T21:56:51.631Z,76.00
2022-11-01T21:59:38.051Z,81.72
2022-11-01T22:02:23.905Z,81.35
2022-11-01T22:05:10.427Z,95.17
2022-11-01T22:07:56.556Z,110.55
2022-11-01T22:10:42.467Z,46.15
2022-11-01T22:13:28.707Z,51.30
2022-11-01T22:16:14.746Z,71.57
2022-11-01T22:19:02.576Z,67.60
2022-11-01T22:21:48.718Z,94.83
2022-11-01T22:24:34.532Z,79.68
2022-11-01T22:27:20.457Z,94.40
2022-11-01T22:30:07.940Z,77.55
2022-11-01T22:32:54.119Z,126.82
2022-11-01T22:35:40.447Z,79.70
2022-11-01T22:38:33.648Z,67.05
2022-11-01T22:41:34.212Z,94.10
2022-11-01T22:44:32.520Z,71.60
2022-11-01T22:47:23.872Z,82.00
2022-11-01T22:50:14.034Z,65.82
2022-11-01T22:52:59.961Z,115.28
2022-11-01T22:55:49.343Z,55.08
2022-11-01T22:58:38.695Z,65.72
2022-11-01T23:01:29.033Z,65.00
2022-11-01T23:04:22.404Z,79.32
2022-11-01T23:07:30.523Z,105.35
2022-11-01T23:10:25.050Z,66.68
2022-11-01T23:13:29.987Z,51.58
2022-11-01T23:16:23.005Z,84.07
2022-11-01T23:19:13.147Z,71.85
2022-11-01T23:21:59.357Z,65.65
2022-11-01T23:24:47.566Z,177.05
2022-11-01T23:27:34.318Z,77.85
2022-11-01T23:30:20.438Z,50.63
2022-11-01T23:33:11.691Z,94.55
2022-11-01T23:35:59.591Z,88.75
2022-11-01T23:39:01.695Z,96.53
2022-11-01T23:41:50.698Z,80.72
2022-11-01T23:44:40.696Z,80.07
2022-11-01T23:47:35.227Z,98.53
2022-11-01T23:50:36.527Z,95.60
2022-11-01T23:53:35.570Z,107.37
2022-11-01T23:56:22.037Z,107.28
2022-11-01T23:59:08.425Z,101.90
